sensor_id;sensor_type;location;lat;lon;timestamp;P1;durP1;ratioP1;P2;durP2;ratioP2
65162;SDS011;51751;55.714;37.436;2022-10-16T00:01:28;8.15;;;4.13;;
65162;SDS011;51751;55.714;37.436;2022-10-16T00:03:55;9.98;;;3.92;;
65162;SDS011;51751;55.714;37.436;2022-10-16T00:06:25;8.55;;;3.53;;
65162;SDS011;51751;55.714;37.436;2022-10-16T00:09:12;8.55;;;3.30;;
65162;SDS011;51751;55.714;37.436;2022-10-16T00:11:39;7.03;;;3.60;;
65162;SDS011;51751;55.714;37.436;2022-10-16T00:14:14;8.50;;;3.85;;
65162;SDS011;51751;55.714;37.436;2022-10-16T00:16:41;11.13;;;3.92;;
65162;SDS011;51751;55.714;37.436;2022-10-16T00:19:07;9.70;;;3.92;;
65162;SDS011;51751;55.714;37.436;2022-10-16T00:21:34;6.03;;;3.90;;
65162;SDS011;51751;55.714;37.436;2022-10-16T00:24:25;9.23;;;3.78;;
65162;SDS011;51751;55.714;37.436;2022-10-16T00:26:51;12.13;;;3.95;;
65162;SDS011;51751;55.714;37.436;2022-10-16T00:29:34;7.32;;;3.83;;
65162;SDS011;51751;55.714;37.436;2022-10-16T00:32:00;6.40;;;3.42;;
65162;SDS011;51751;55.714;37.436;2022-10-16T00:34:26;7.95;;;3.72;;
65162;SDS011;51751;55.714;37.436;2022-10-16T00:36:52;7.78;;;3.63;;
65162;SDS011;51751;55.714;37.436;2022-10-16T00:39:27;10.63;;;3.97;;
65162;SDS011;51751;55.714;37.436;2022-10-16T00:41:53;8.90;;;3.80;;
65162;SDS011;51751;55.714;37.436;2022-10-16T00:49:56;7.43;;;3.97;;
65162;SDS011;51751;55.714;37.436;2022-10-16T00:52:26;8.55;;;3.58;;
65162;SDS011;51751;55.714;37.436;2022-10-16T00:54:52;6.28;;;3.85;;
65162;SDS011;51751;55.714;37.436;2022-10-16T00:57:19;8.98;;;3.95;;
65162;SDS011;51751;55.714;37.436;2022-10-16T00:59:45;7.65;;;4.05;;
65162;SDS011;51751;55.714;37.436;2022-10-16T01:02:13;9.63;;;3.75;;
65162;SDS011;51751;55.714;37.436;2022-10-16T01:04:45;8.30;;;4.10;;
65162;SDS011;51751;55.714;37.436;2022-10-16T01:12:50;10.05;;;3.72;;
65162;SDS011;51751;55.714;37.436;2022-10-16T01:18:27;7.38;;;3.58;;
65162;SDS011;51751;55.714;37.436;2022-10-16T01:20:58;7.20;;;3.47;;
65162;SDS011;51751;55.714;37.436;2022-10-16T01:31:39;8.50;;;3.60;;
65162;SDS011;51751;55.714;37.436;2022-10-16T01:34:10;9.60;;;3.80;;
65162;SDS011;51751;55.714;37.436;2022-10-16T01:36:41;6.82;;;3.78;;
65162;SDS011;51751;55.714;37.436;2022-10-16T01:39:14;7.55;;;3.90;;
65162;SDS011;51751;55.714;37.436;2022-10-16T01:41:46;9.80;;;4.10;;
65162;SDS011;51751;55.714;37.436;2022-10-16T01:44:33;7.47;;;3.60;;
65162;SDS011;51751;55.714;37.436;2022-10-16T01:47:02;6.38;;;3.65;;
65162;SDS011;51751;55.714;37.436;2022-10-16T01:49:32;8.50;;;3.80;;
65162;SDS011;51751;55.714;37.436;2022-10-16T01:52:00;10.02;;;3.78;;
65162;SDS011;51751;55.714;37.436;2022-10-16T01:54:31;7.80;;;3.47;;
65162;SDS011;51751;55.714;37.436;2022-10-16T01:56:59;8.73;;;3.72;;
65162;SDS011;51751;55.714;37.436;2022-10-16T01:59:26;8.18;;;4.20;;
65162;SDS011;51751;55.714;37.436;2022-10-16T02:01:55;7.90;;;3.85;;
65162;SDS011;51751;55.714;37.436;2022-10-16T02:04:27;6.97;;;3.70;;
65162;SDS011;51751;55.714;37.436;2022-10-16T02:07:13;7.85;;;3.75;;
65162;SDS011;51751;55.714;37.436;2022-10-16T02:09:39;6.80;;;3.78;;
65162;SDS011;51751;55.714;37.436;2022-10-16T02:12:10;9.98;;;4.20;;
65162;SDS011;51751;55.714;37.436;2022-10-16T02:14:44;7.18;;;3.75;;
65162;SDS011;51751;55.714;37.436;2022-10-16T02:17:14;7.20;;;3.70;;
65162;SDS011;51751;55.714;37.436;2022-10-16T02:19:42;9.35;;;3.95;;
65162;SDS011;51751;55.714;37.436;2022-10-16T02:22:16;11.80;;;4.05;;
65162;SDS011;51751;55.714;37.436;2022-10-16T02:25:04;10.18;;;4.30;;
65162;SDS011;51751;55.714;37.436;2022-10-16T02:30:37;7.85;;;4.00;;
65162;SDS011;51751;55.714;37.436;2022-10-16T02:33:15;8.00;;;4.00;;
65162;SDS011;51751;55.714;37.436;2022-10-16T02:35:43;9.15;;;3.50;;
65162;SDS011;51751;55.714;37.436;2022-10-16T02:38:14;7.10;;;4.05;;
65162;SDS011;51751;55.714;37.436;2022-10-16T02:40:40;8.30;;;4.30;;
65162;SDS011;51751;55.714;37.436;2022-10-16T02:43:12;7.38;;;3.42;;
65162;SDS011;51751;55.714;37.436;2022-10-16T02:45:39;10.10;;;3.80;;
65162;SDS011;51751;55.714;37.436;2022-10-16T02:48:05;18.05;;;4.63;;
65162;SDS011;51751;55.714;37.436;2022-10-16T02:50:31;8.50;;;3.60;;
65162;SDS011;51751;55.714;37.436;2022-10-16T02:52:57;8.65;;;4.10;;
65162;SDS011;51751;55.714;37.436;2022-10-16T02:55:23;15.82;;;4.50;;
65162;SDS011;51751;55.714;37.436;2022-10-16T02:57:50;14.07;;;4.15;;
65162;SDS011;51751;55.714;37.436;2022-10-16T03:00:19;12.65;;;3.95;;
65162;SDS011;51751;55.714;37.436;2022-10-16T03:02:46;14.13;;;4.40;;
65162;SDS011;51751;55.714;37.436;2022-10-16T03:07:58;10.30;;;3.97;;
65162;SDS011;51751;55.714;37.436;2022-10-16T03:10:26;8.13;;;4.00;;
65162;SDS011;51751;55.714;37.436;2022-10-16T03:12:52;8.48;;;4.10;;
65162;SDS011;51751;55.714;37.436;2022-10-16T03:15:19;9.52;;;3.90;;
65162;SDS011;51751;55.714;37.436;2022-10-16T03:17:44;11.32;;;4.00;;
65162;SDS011;51751;55.714;37.436;2022-10-16T03:20:10;13.23;;;4.32;;
65162;SDS011;51751;55.714;37.436;2022-10-16T03:22:36;12.43;;;4.35;;
65162;SDS011;51751;55.714;37.436;2022-10-16T03:25:02;27.88;;;6.63;;
65162;SDS011;51751;55.714;37.436;2022-10-16T03:27:29;19.25;;;5.93;;
65162;SDS011;51751;55.714;37.436;2022-10-16T03:29:55;13.13;;;3.85;;
65162;SDS011;51751;55.714;37.436;2022-10-16T03:32:21;17.95;;;4.75;;
65162;SDS011;51751;55.714;37.436;2022-10-16T03:34:50;9.55;;;3.92;;
65162;SDS011;51751;55.714;37.436;2022-10-16T03:37:16;10.38;;;3.55;;
65162;SDS011;51751;55.714;37.436;2022-10-16T03:39:42;11.00;;;3.58;;
65162;SDS011;51751;55.714;37.436;2022-10-16T03:42:11;17.33;;;5.10;;
65162;SDS011;51751;55.714;37.436;2022-10-16T03:44:46;15.77;;;4.40;;
65162;SDS011;51751;55.714;37.436;2022-10-16T03:47:12;20.33;;;4.97;;
65162;SDS011;51751;55.714;37.436;2022-10-16T03:49:41;14.25;;;4.75;;
65162;SDS011;51751;55.714;37.436;2022-10-16T03:52:07;9.80;;;3.50;;
65162;SDS011;51751;55.714;37.436;2022-10-16T03:54:33;8.88;;;3.67;;
65162;SDS011;51751;55.714;37.436;2022-10-16T03:57:02;9.15;;;3.80;;
65162;SDS011;51751;55.714;37.436;2022-10-16T03:59:31;11.60;;;3.60;;
65162;SDS011;51751;55.714;37.436;2022-10-16T04:01:57;14.02;;;3.80;;
65162;SDS011;51751;55.714;37.436;2022-10-16T04:04:23;12.20;;;4.28;;
65162;SDS011;51751;55.714;37.436;2022-10-16T04:06:50;14.80;;;3.85;;
65162;SDS011;51751;55.714;37.436;2022-10-16T04:09:16;14.18;;;4.35;;
65162;SDS011;51751;55.714;37.436;2022-10-16T04:11:42;12.98;;;4.00;;
65162;SDS011;51751;55.714;37.436;2022-10-16T04:14:08;8.27;;;4.03;;
65162;SDS011;51751;55.714;37.436;2022-10-16T04:16:34;10.43;;;4.10;;
65162;SDS011;51751;55.714;37.436;2022-10-16T04:19:00;10.50;;;3.47;;
65162;SDS011;51751;55.714;37.436;2022-10-16T04:21:26;20.67;;;4.53;;
65162;SDS011;51751;55.714;37.436;2022-10-16T04:24:10;10.80;;;3.72;;
65162;SDS011;51751;55.714;37.436;2022-10-16T04:26:39;13.48;;;4.53;;
65162;SDS011;51751;55.714;37.436;2022-10-16T04:29:05;12.57;;;4.47;;
65162;SDS011;51751;55.714;37.436;2022-10-16T04:31:31;16.50;;;4.38;;
65162;SDS011;51751;55.714;37.436;2022-10-16T04:33:58;7.47;;;4.00;;
65162;SDS011;51751;55.714;37.436;2022-10-16T04:36:24;9.57;;;4.15;;
65162;SDS011;51751;55.714;37.436;2022-10-16T04:38:49;10.38;;;4.18;;
65162;SDS011;51751;55.714;37.436;2022-10-16T04:41:15;9.55;;;4.05;;
65162;SDS011;51751;55.714;37.436;2022-10-16T04:43:42;9.13;;;4.30;;
65162;SDS011;51751;55.714;37.436;2022-10-16T04:46:07;14.88;;;3.80;;
65162;SDS011;51751;55.714;37.436;2022-10-16T04:48:35;16.10;;;5.00;;
65162;SDS011;51751;55.714;37.436;2022-10-16T04:51:01;9.52;;;4.25;;
65162;SDS011;51751;55.714;37.436;2022-10-16T04:53:27;11.25;;;4.43;;
65162;SDS011;51751;55.714;37.436;2022-10-16T04:55:53;9.05;;;3.53;;
65162;SDS011;51751;55.714;37.436;2022-10-16T04:58:20;17.95;;;4.20;;
65162;SDS011;51751;55.714;37.436;2022-10-16T05:01:04;8.85;;;4.05;;
65162;SDS011;51751;55.714;37.436;2022-10-16T05:03:30;15.20;;;3.88;;
65162;SDS011;51751;55.714;37.436;2022-10-16T05:05:56;12.20;;;4.32;;
65162;SDS011;51751;55.714;37.436;2022-10-16T05:08:22;8.50;;;3.97;;
65162;SDS011;51751;55.714;37.436;2022-10-16T05:10:50;13.27;;;4.93;;
65162;SDS011;51751;55.714;37.436;2022-10-16T05:13:16;9.20;;;3.60;;
65162;SDS011;51751;55.714;37.436;2022-10-16T05:15:47;8.88;;;3.63;;
65162;SDS011;51751;55.714;37.436;2022-10-16T05:18:14;9.15;;;3.70;;
65162;SDS011;51751;55.714;37.436;2022-10-16T05:20:40;32.20;;;4.40;;
65162;SDS011;51751;55.714;37.436;2022-10-16T05:23:06;12.70;;;3.25;;
65162;SDS011;51751;55.714;37.436;2022-10-16T05:25:33;13.57;;;3.63;;
65162;SDS011;51751;55.714;37.436;2022-10-16T05:27:58;18.10;;;4.47;;
65162;SDS011;51751;55.714;37.436;2022-10-16T05:30:25;12.52;;;4.00;;
65162;SDS011;51751;55.714;37.436;2022-10-16T05:32:51;9.15;;;3.38;;
65162;SDS011;51751;55.714;37.436;2022-10-16T05:35:19;14.68;;;3.95;;
65162;SDS011;51751;55.714;37.436;2022-10-16T05:37:46;10.50;;;3.65;;
65162;SDS011;51751;55.714;37.436;2022-10-16T05:40:12;10.13;;;4.05;;
65162;SDS011;51751;55.714;37.436;2022-10-16T05:42:41;18.33;;;5.57;;
65162;SDS011;51751;55.714;37.436;2022-10-16T05:45:07;14.70;;;4.45;;
65162;SDS011;51751;55.714;37.436;2022-10-16T05:47:38;10.43;;;4.25;;
65162;SDS011;51751;55.714;37.436;2022-10-16T05:50:04;9.07;;;3.45;;
65162;SDS011;51751;55.714;37.436;2022-10-16T05:52:30;9.30;;;3.55;;
65162;SDS011;51751;55.714;37.436;2022-10-16T05:54:58;10.48;;;3.58;;
65162;SDS011;51751;55.714;37.436;2022-10-16T05:57:24;6.68;;;3.55;;
65162;SDS011;51751;55.714;37.436;2022-10-16T05:59:50;13.18;;;3.92;;
65162;SDS011;51751;55.714;37.436;2022-10-16T06:02:16;8.93;;;3.88;;
65162;SDS011;51751;55.714;37.436;2022-10-16T06:04:42;9.73;;;3.85;;
65162;SDS011;51751;55.714;37.436;2022-10-16T06:07:11;8.13;;;3.75;;
65162;SDS011;51751;55.714;37.436;2022-10-16T06:09:40;9.50;;;3.70;;
65162;SDS011;51751;55.714;37.436;2022-10-16T06:12:08;8.80;;;3.53;;
65162;SDS011;51751;55.714;37.436;2022-10-16T06:14:34;9.75;;;3.97;;
65162;SDS011;51751;55.714;37.436;2022-10-16T06:17:00;8.07;;;3.58;;
65162;SDS011;51751;55.714;37.436;2022-10-16T06:19:29;10.88;;;3.97;;
65162;SDS011;51751;55.714;37.436;2022-10-16T06:21:55;11.68;;;4.18;;
65162;SDS011;51751;55.714;37.436;2022-10-16T06:24:23;12.05;;;3.88;;
65162;SDS011;51751;55.714;37.436;2022-10-16T06:26:49;11.60;;;4.30;;
65162;SDS011;51751;55.714;37.436;2022-10-16T06:29:16;7.93;;;3.72;;
65162;SDS011;51751;55.714;37.436;2022-10-16T06:31:42;6.50;;;3.83;;
65162;SDS011;51751;55.714;37.436;2022-10-16T06:34:09;5.60;;;3.35;;
65162;SDS011;51751;55.714;37.436;2022-10-16T06:36:38;6.72;;;3.55;;
65162;SDS011;51751;55.714;37.436;2022-10-16T06:39:05;13.85;;;4.25;;
65162;SDS011;51751;55.714;37.436;2022-10-16T06:41:32;8.45;;;3.78;;
65162;SDS011;51751;55.714;37.436;2022-10-16T06:44:15;7.88;;;3.70;;
65162;SDS011;51751;55.714;37.436;2022-10-16T06:46:41;12.77;;;3.42;;
65162;SDS011;51751;55.714;37.436;2022-10-16T06:49:07;7.97;;;3.38;;
65162;SDS011;51751;55.714;37.436;2022-10-16T06:51:34;7.60;;;3.67;;
65162;SDS011;51751;55.714;37.436;2022-10-16T06:54:02;6.97;;;3.70;;
65162;SDS011;51751;55.714;37.436;2022-10-16T06:56:29;10.63;;;4.05;;
65162;SDS011;51751;55.714;37.436;2022-10-16T06:58:56;12.80;;;3.58;;
65162;SDS011;51751;55.714;37.436;2022-10-16T07:01:22;9.02;;;4.20;;
65162;SDS011;51751;55.714;37.436;2022-10-16T07:03:49;8.95;;;3.55;;
65162;SDS011;51751;55.714;37.436;2022-10-16T07:06:16;17.70;;;4.07;;
65162;SDS011;51751;55.714;37.436;2022-10-16T07:08:46;9.32;;;3.95;;
65162;SDS011;51751;55.714;37.436;2022-10-16T07:11:17;8.25;;;4.10;;
65162;SDS011;51751;55.714;37.436;2022-10-16T07:13:47;13.13;;;4.25;;
65162;SDS011;51751;55.714;37.436;2022-10-16T07:16:15;8.90;;;4.43;;
65162;SDS011;51751;55.714;37.436;2022-10-16T07:18:45;7.38;;;4.38;;
65162;SDS011;51751;55.714;37.436;2022-10-16T07:21:20;11.13;;;3.83;;
65162;SDS011;51751;55.714;37.436;2022-10-16T07:23:54;13.40;;;3.97;;
65162;SDS011;51751;55.714;37.436;2022-10-16T07:26:27;10.57;;;4.05;;
65162;SDS011;51751;55.714;37.436;2022-10-16T07:28:58;6.47;;;3.70;;
65162;SDS011;51751;55.714;37.436;2022-10-16T07:31:43;8.35;;;3.40;;
65162;SDS011;51751;55.714;37.436;2022-10-16T07:34:14;10.88;;;3.60;;
65162;SDS011;51751;55.714;37.436;2022-10-16T07:36:43;9.02;;;3.83;;
65162;SDS011;51751;55.714;37.436;2022-10-16T07:39:09;12.52;;;4.30;;
65162;SDS011;51751;55.714;37.436;2022-10-16T07:41:35;14.05;;;5.05;;
65162;SDS011;51751;55.714;37.436;2022-10-16T07:44:20;15.27;;;4.50;;
65162;SDS011;51751;55.714;37.436;2022-10-16T07:46:46;7.70;;;3.70;;
65162;SDS011;51751;55.714;37.436;2022-10-16T07:49:13;11.77;;;4.03;;
65162;SDS011;51751;55.714;37.436;2022-10-16T07:51:39;10.85;;;4.25;;
65162;SDS011;51751;55.714;37.436;2022-10-16T07:54:14;12.40;;;3.90;;
65162;SDS011;51751;55.714;37.436;2022-10-16T07:56:40;12.52;;;3.88;;
65162;SDS011;51751;55.714;37.436;2022-10-16T07:59:06;9.43;;;3.95;;
65162;SDS011;51751;55.714;37.436;2022-10-16T08:01:32;8.27;;;3.90;;
65162;SDS011;51751;55.714;37.436;2022-10-16T08:03:58;5.82;;;3.67;;
65162;SDS011;51751;55.714;37.436;2022-10-16T08:06:24;10.13;;;4.50;;
65162;SDS011;51751;55.714;37.436;2022-10-16T08:08:55;9.27;;;4.00;;
65162;SDS011;51751;55.714;37.436;2022-10-16T08:11:21;13.77;;;3.95;;
65162;SDS011;51751;55.714;37.436;2022-10-16T08:13:47;9.48;;;3.67;;
65162;SDS011;51751;55.714;37.436;2022-10-16T08:16:14;13.60;;;4.03;;
65162;SDS011;51751;55.714;37.436;2022-10-16T08:18:40;10.07;;;4.05;;
65162;SDS011;51751;55.714;37.436;2022-10-16T08:21:07;11.75;;;3.63;;
65162;SDS011;51751;55.714;37.436;2022-10-16T08:23:34;8.48;;;3.25;;
65162;SDS011;51751;55.714;37.436;2022-10-16T08:26:04;13.43;;;3.53;;
65162;SDS011;51751;55.714;37.436;2022-10-16T08:28:31;10.02;;;3.80;;
65162;SDS011;51751;55.714;37.436;2022-10-16T08:33:32;12.35;;;3.95;;
65162;SDS011;51751;55.714;37.436;2022-10-16T08:36:00;8.20;;;3.25;;
65162;SDS011;51751;55.714;37.436;2022-10-16T08:38:32;8.90;;;3.15;;
65162;SDS011;51751;55.714;37.436;2022-10-16T08:41:13;7.65;;;3.50;;
65162;SDS011;51751;55.714;37.436;2022-10-16T08:49:26;5.82;;;3.50;;
65162;SDS011;51751;55.714;37.436;2022-10-16T08:51:52;7.32;;;3.13;;
65162;SDS011;51751;55.714;37.436;2022-10-16T08:56:56;8.77;;;3.40;;
65162;SDS011;51751;55.714;37.436;2022-10-16T08:59:33;6.30;;;2.90;;
65162;SDS011;51751;55.714;37.436;2022-10-16T09:02:54;10.60;;;3.90;;
65162;SDS011;51751;55.714;37.436;2022-10-16T09:16:30;6.35;;;2.63;;
65162;SDS011;51751;55.714;37.436;2022-10-16T09:19:05;13.20;;;3.00;;
65162;SDS011;51751;55.714;37.436;2022-10-16T09:21:41;5.07;;;2.67;;
65162;SDS011;51751;55.714;37.436;2022-10-16T09:24:12;10.30;;;2.92;;
65162;SDS011;51751;55.714;37.436;2022-10-16T09:26:40;6.40;;;2.58;;
65162;SDS011;51751;55.714;37.436;2022-10-16T09:29:18;16.23;;;3.22;;
65162;SDS011;51751;55.714;37.436;2022-10-16T09:31:46;6.00;;;2.70;;
65162;SDS011;51751;55.714;37.436;2022-10-16T09:34:24;13.05;;;2.60;;
65162;SDS011;51751;55.714;37.436;2022-10-16T09:36:58;5.90;;;2.60;;
65162;SDS011;51751;55.714;37.436;2022-10-16T09:39:25;7.38;;;3.10;;
65162;SDS011;51751;55.714;37.436;2022-10-16T09:41:54;5.57;;;2.20;;
65162;SDS011;51751;55.714;37.436;2022-10-16T09:44:27;13.68;;;2.90;;
65162;SDS011;51751;55.714;37.436;2022-10-16T09:47:00;14.25;;;3.10;;
65162;SDS011;51751;55.714;37.436;2022-10-16T09:52:36;16.35;;;3.50;;
65162;SDS011;51751;55.714;37.436;2022-10-16T09:55:09;9.90;;;3.00;;
65162;SDS011;51751;55.714;37.436;2022-10-16T09:57:52;12.88;;;2.95;;
65162;SDS011;51751;55.714;37.436;2022-10-16T10:00:20;9.10;;;3.08;;
65162;SDS011;51751;55.714;37.436;2022-10-16T10:02:47;8.43;;;3.30;;
65162;SDS011;51751;55.714;37.436;2022-10-16T10:05:28;9.00;;;3.20;;
65162;SDS011;51751;55.714;37.436;2022-10-16T10:07:58;16.13;;;2.90;;
65162;SDS011;51751;55.714;37.436;2022-10-16T10:10:27;13.65;;;2.70;;
65162;SDS011;51751;55.714;37.436;2022-10-16T10:15:47;6.53;;;2.50;;
65162;SDS011;51751;55.714;37.436;2022-10-16T10:18:17;6.95;;;2.85;;
65162;SDS011;51751;55.714;37.436;2022-10-16T10:20:45;9.88;;;2.75;;
65162;SDS011;51751;55.714;37.436;2022-10-16T10:23:22;14.80;;;3.20;;
65162;SDS011;51751;55.714;37.436;2022-10-16T10:31:43;13.57;;;3.70;;
65162;SDS011;51751;55.714;37.436;2022-10-16T10:34:42;11.88;;;3.00;;
65162;SDS011;51751;55.714;37.436;2022-10-16T10:39:59;6.68;;;3.13;;
65162;SDS011;51751;55.714;37.436;2022-10-16T10:42:38;5.72;;;2.72;;
65162;SDS011;51751;55.714;37.436;2022-10-16T10:56:02;12.35;;;3.50;;
65162;SDS011;51751;55.714;37.436;2022-10-16T11:02:15;5.43;;;2.38;;
65162;SDS011;51751;55.714;37.436;2022-10-16T11:16:30;6.50;;;3.00;;
65162;SDS011;51751;55.714;37.436;2022-10-16T11:19:37;5.75;;;3.05;;
65162;SDS011;51751;55.714;37.436;2022-10-16T11:30:57;15.55;;;3.65;;
65162;SDS011;51751;55.714;37.436;2022-10-16T11:33:45;11.90;;;3.70;;
65162;SDS011;51751;55.714;37.436;2022-10-16T11:36:34;11.20;;;3.40;;
65162;SDS011;51751;55.714;37.436;2022-10-16T11:39:20;13.63;;;2.95;;
65162;SDS011;51751;55.714;37.436;2022-10-16T11:47:39;8.52;;;2.80;;
65162;SDS011;51751;55.714;37.436;2022-10-16T11:58:18;6.00;;;2.67;;
65162;SDS011;51751;55.714;37.436;2022-10-16T12:08:41;8.93;;;2.90;;
65162;SDS011;51751;55.714;37.436;2022-10-16T12:11:19;5.65;;;3.10;;
65162;SDS011;51751;55.714;37.436;2022-10-16T12:13:51;6.97;;;2.90;;
65162;SDS011;51751;55.714;37.436;2022-10-16T12:16:28;6.68;;;2.70;;
65162;SDS011;51751;55.714;37.436;2022-10-16T12:21:52;7.70;;;2.67;;
65162;SDS011;51751;55.714;37.436;2022-10-16T12:26:55;8.52;;;3.35;;
65162;SDS011;51751;55.714;37.436;2022-10-16T12:31:57;6.20;;;3.17;;
65162;SDS011;51751;55.714;37.436;2022-10-16T12:34:41;6.07;;;2.80;;
65162;SDS011;51751;55.714;37.436;2022-10-16T12:37:30;6.30;;;3.20;;
65162;SDS011;51751;55.714;37.436;2022-10-16T12:40:27;7.53;;;2.83;;
65162;SDS011;51751;55.714;37.436;2022-10-16T12:42:59;7.15;;;3.20;;
65162;SDS011;51751;55.714;37.436;2022-10-16T12:45:36;16.85;;;4.80;;
65162;SDS011;51751;55.714;37.436;2022-10-16T12:48:02;5.25;;;3.03;;
65162;SDS011;51751;55.714;37.436;2022-10-16T12:50:45;7.50;;;3.10;;
65162;SDS011;51751;55.714;37.436;2022-10-16T12:53:18;4.07;;;2.63;;
65162;SDS011;51751;55.714;37.436;2022-10-16T12:58:43;7.85;;;2.95;;
65162;SDS011;51751;55.714;37.436;2022-10-16T13:06:41;9.35;;;3.40;;
65162;SDS011;51751;55.714;37.436;2022-10-16T13:18:29;9.93;;;2.88;;
65162;SDS011;51751;55.714;37.436;2022-10-16T13:26:52;8.63;;;3.03;;
65162;SDS011;51751;55.714;37.436;2022-10-16T13:29:45;4.05;;;2.70;;
65162;SDS011;51751;55.714;37.436;2022-10-16T13:32:11;6.45;;;3.63;;
65162;SDS011;51751;55.714;37.436;2022-10-16T13:34:44;6.93;;;3.80;;
65162;SDS011;51751;55.714;37.436;2022-10-16T13:37:18;7.82;;;3.80;;
65162;SDS011;51751;55.714;37.436;2022-10-16T13:39:46;12.85;;;3.30;;
65162;SDS011;51751;55.714;37.436;2022-10-16T13:42:15;9.25;;;3.60;;
65162;SDS011;51751;55.714;37.436;2022-10-16T13:44:51;12.80;;;3.10;;
65162;SDS011;51751;55.714;37.436;2022-10-16T13:47:22;9.88;;;4.47;;
65162;SDS011;51751;55.714;37.436;2022-10-16T13:50:03;9.82;;;3.28;;
65162;SDS011;51751;55.714;37.436;2022-10-16T13:52:31;10.52;;;3.75;;
65162;SDS011;51751;55.714;37.436;2022-10-16T13:54:58;9.05;;;3.67;;
65162;SDS011;51751;55.714;37.436;2022-10-16T13:57:24;10.15;;;3.30;;
65162;SDS011;51751;55.714;37.436;2022-10-16T13:59:52;8.50;;;3.50;;
65162;SDS011;51751;55.714;37.436;2022-10-16T14:04:59;9.35;;;3.40;;
65162;SDS011;51751;55.714;37.436;2022-10-16T14:07:26;10.88;;;3.58;;
65162;SDS011;51751;55.714;37.436;2022-10-16T14:09:58;15.07;;;3.60;;
65162;SDS011;51751;55.714;37.436;2022-10-16T14:12:31;8.13;;;3.25;;
65162;SDS011;51751;55.714;37.436;2022-10-16T14:14:59;8.10;;;3.50;;
65162;SDS011;51751;55.714;37.436;2022-10-16T14:17:32;11.73;;;3.35;;
65162;SDS011;51751;55.714;37.436;2022-10-16T14:20:01;10.93;;;3.20;;
65162;SDS011;51751;55.714;37.436;2022-10-16T14:22:36;6.30;;;3.35;;
65162;SDS011;51751;55.714;37.436;2022-10-16T14:27:44;9.73;;;3.67;;
65162;SDS011;51751;55.714;37.436;2022-10-16T14:30:33;7.68;;;3.35;;
65162;SDS011;51751;55.714;37.436;2022-10-16T14:36:04;6.10;;;3.20;;
65162;SDS011;51751;55.714;37.436;2022-10-16T14:38:32;11.80;;;4.03;;
65162;SDS011;51751;55.714;37.436;2022-10-16T14:40:59;7.80;;;3.08;;
65162;SDS011;51751;55.714;37.436;2022-10-16T14:43:34;10.00;;;3.58;;
65162;SDS011;51751;55.714;37.436;2022-10-16T14:46:03;11.07;;;3.83;;
65162;SDS011;51751;55.714;37.436;2022-10-16T14:48:32;10.77;;;3.25;;
65162;SDS011;51751;55.714;37.436;2022-10-16T14:51:00;9.23;;;3.55;;
65162;SDS011;51751;55.714;37.436;2022-10-16T14:53:29;13.00;;;3.42;;
65162;SDS011;51751;55.714;37.436;2022-10-16T14:55:56;11.65;;;3.70;;
65162;SDS011;51751;55.714;37.436;2022-10-16T14:58:22;9.27;;;3.80;;
65162;SDS011;51751;55.714;37.436;2022-10-16T15:00:48;14.30;;;4.10;;
65162;SDS011;51751;55.714;37.436;2022-10-16T15:03:15;11.95;;;3.75;;
65162;SDS011;51751;55.714;37.436;2022-10-16T15:05:41;7.45;;;3.72;;
65162;SDS011;51751;55.714;37.436;2022-10-16T15:08:13;7.65;;;3.58;;
65162;SDS011;51751;55.714;37.436;2022-10-16T15:10:41;8.40;;;3.30;;
65162;SDS011;51751;55.714;37.436;2022-10-16T15:13:11;8.38;;;3.78;;
65162;SDS011;51751;55.714;37.436;2022-10-16T15:15:41;11.10;;;3.70;;
65162;SDS011;51751;55.714;37.436;2022-10-16T15:18:30;8.93;;;3.78;;
65162;SDS011;51751;55.714;37.436;2022-10-16T15:21:01;8.05;;;3.65;;
65162;SDS011;51751;55.714;37.436;2022-10-16T15:23:29;10.40;;;3.90;;
65162;SDS011;51751;55.714;37.436;2022-10-16T15:25:58;9.68;;;4.40;;
65162;SDS011;51751;55.714;37.436;2022-10-16T15:28:26;9.30;;;4.65;;
65162;SDS011;51751;55.714;37.436;2022-10-16T15:30:54;11.80;;;4.80;;
65162;SDS011;51751;55.714;37.436;2022-10-16T15:33:22;14.77;;;4.25;;
65162;SDS011;51751;55.714;37.436;2022-10-16T15:35:58;9.25;;;4.30;;
65162;SDS011;51751;55.714;37.436;2022-10-16T15:38:30;8.82;;;4.45;;
65162;SDS011;51751;55.714;37.436;2022-10-16T15:40:58;8.50;;;4.13;;
65162;SDS011;51751;55.714;37.436;2022-10-16T15:43:24;10.20;;;4.65;;
65162;SDS011;51751;55.714;37.436;2022-10-16T15:46:00;7.78;;;4.28;;
65162;SDS011;51751;55.714;37.436;2022-10-16T15:48:28;10.43;;;4.60;;
65162;SDS011;51751;55.714;37.436;2022-10-16T15:50:55;8.15;;;4.22;;
65162;SDS011;51751;55.714;37.436;2022-10-16T15:53:21;9.32;;;4.15;;
65162;SDS011;51751;55.714;37.436;2022-10-16T15:55:50;8.23;;;4.20;;
65162;SDS011;51751;55.714;37.436;2022-10-16T15:58:19;15.70;;;5.03;;
65162;SDS011;51751;55.714;37.436;2022-10-16T16:00:53;10.60;;;4.13;;
65162;SDS011;51751;55.714;37.436;2022-10-16T16:03:30;9.02;;;4.85;;
65162;SDS011;51751;55.714;37.436;2022-10-16T16:06:03;14.55;;;4.43;;
65162;SDS011;51751;55.714;37.436;2022-10-16T16:08:30;13.60;;;4.72;;
65162;SDS011;51751;55.714;37.436;2022-10-16T16:11:17;9.77;;;4.30;;
65162;SDS011;51751;55.714;37.436;2022-10-16T16:13:44;8.45;;;4.13;;
65162;SDS011;51751;55.714;37.436;2022-10-16T16:16:28;11.95;;;4.60;;
65162;SDS011;51751;55.714;37.436;2022-10-16T16:18:55;10.77;;;4.60;;
65162;SDS011;51751;55.714;37.436;2022-10-16T16:21:21;15.32;;;4.35;;
65162;SDS011;51751;55.714;37.436;2022-10-16T16:23:52;19.00;;;4.85;;
65162;SDS011;51751;55.714;37.436;2022-10-16T16:26:28;18.90;;;4.53;;
65162;SDS011;51751;55.714;37.436;2022-10-16T16:29:02;11.05;;;4.60;;
65162;SDS011;51751;55.714;37.436;2022-10-16T16:31:31;9.00;;;4.13;;
65162;SDS011;51751;55.714;37.436;2022-10-16T16:34:01;9.30;;;4.25;;
65162;SDS011;51751;55.714;37.436;2022-10-16T16:36:28;18.23;;;4.75;;
65162;SDS011;51751;55.714;37.436;2022-10-16T16:38:57;10.23;;;4.85;;
65162;SDS011;51751;55.714;37.436;2022-10-16T16:41:24;11.55;;;5.25;;
65162;SDS011;51751;55.714;37.436;2022-10-16T16:43:52;18.08;;;5.55;;
65162;SDS011;51751;55.714;37.436;2022-10-16T16:46:19;15.27;;;5.10;;
65162;SDS011;51751;55.714;37.436;2022-10-16T16:48:45;10.45;;;4.93;;
65162;SDS011;51751;55.714;37.436;2022-10-16T16:51:14;8.07;;;4.60;;
65162;SDS011;51751;55.714;37.436;2022-10-16T16:53:59;10.65;;;4.25;;
65162;SDS011;51751;55.714;37.436;2022-10-16T16:56:25;9.57;;;4.72;;
65162;SDS011;51751;55.714;37.436;2022-10-16T16:58:58;12.63;;;4.95;;
65162;SDS011;51751;55.714;37.436;2022-10-16T17:01:30;13.75;;;4.70;;
65162;SDS011;51751;55.714;37.436;2022-10-16T17:03:59;9.15;;;5.10;;
65162;SDS011;51751;55.714;37.436;2022-10-16T17:06:28;13.68;;;5.10;;
65162;SDS011;51751;55.714;37.436;2022-10-16T17:08:57;14.02;;;4.80;;
65162;SDS011;51751;55.714;37.436;2022-10-16T17:11:25;10.93;;;4.93;;
65162;SDS011;51751;55.714;37.436;2022-10-16T17:13:56;15.75;;;5.07;;
65162;SDS011;51751;55.714;37.436;2022-10-16T17:16:24;9.48;;;4.30;;
65162;SDS011;51751;55.714;37.436;2022-10-16T17:18:53;8.38;;;3.88;;
65162;SDS011;51751;55.714;37.436;2022-10-16T17:21:19;7.32;;;3.47;;
65162;SDS011;51751;55.714;37.436;2022-10-16T17:23:50;12.50;;;4.28;;
65162;SDS011;51751;55.714;37.436;2022-10-16T17:26:19;8.43;;;3.90;;
65162;SDS011;51751;55.714;37.436;2022-10-16T17:28:52;9.18;;;4.30;;